createdAt,value
2023-01-26T06:48:44.159Z,7.72
2023-01-26T06:51:59.840Z,7.72
2023-01-26T06:55:05.003Z,7.30
2023-01-26T06:58:08.362Z,7.80
2023-01-26T07:01:17.325Z,7.15
2023-01-26T07:04:21.888Z,8.27
2023-01-26T07:07:25.042Z,8.18
2023-01-26T07:10:28.233Z,8.73
2023-01-26T07:13:31.703Z,9.27
2023-01-26T07:16:34.870Z,9.20
2023-01-26T07:19:39.693Z,9.50
2023-01-26T07:22:42.995Z,9.35
2023-01-26T07:25:46.374Z,7.90
2023-01-26T07:28:49.919Z,8.43
2023-01-26T07:31:53.578Z,9.38
2023-01-26T07:34:58.078Z,8.57
2023-01-26T07:38:05.333Z,9.05
2023-01-26T07:41:11.051Z,9.27
2023-01-26T07:44:15.013Z,9.00
2023-01-26T07:47:20.003Z,9.73
2023-01-26T07:50:25.711Z,9.45
2023-01-26T07:53:30.459Z,8.93
2023-01-26T07:56:34.718Z,8.95
2023-01-26T07:59:38.190Z,10.70
2023-01-26T08:02:41.712Z,8.40
2023-01-26T08:05:47.190Z,10.15
2023-01-26T08:08:53.657Z,9.65
2023-01-26T08:11:59.164Z,9.45
2023-01-26T08:15:02.762Z,8.20
2023-01-26T08:18:06.704Z,9.10
2023-01-26T08:21:14.205Z,9.32
2023-01-26T08:24:17.607Z,8.68
2023-01-26T08:27:21.078Z,9.50
2023-01-26T08:30:24.708Z,10.68
2023-01-26T08:33:28.085Z,9.55
2023-01-26T08:36:32.815Z,10.43
2023-01-26T08:39:38.127Z,9.52
2023-01-26T08:42:41.526Z,9.55
2023-01-26T08:45:47.674Z,9.30
2023-01-26T08:48:51.227Z,10.20
2023-01-26T08:51:55.741Z,10.52
2023-01-26T08:55:00.147Z,9.85
2023-01-26T08:58:03.773Z,11.13
2023-01-26T09:01:08.096Z,11.15
2023-01-26T09:04:11.573Z,11.35
2023-01-26T09:07:16.470Z,11.55
2023-01-26T09:10:19.972Z,10.57
2023-01-26T09:13:23.580Z,10.50
2023-01-26T09:16:27.103Z,10.25
2023-01-26T09:19:31.239Z,10.18
2023-01-26T09:25:39.411Z,10.57
2023-01-26T09:28:42.849Z,10.70
2023-01-26T09:31:47.576Z,10.30
2023-01-26T09:34:51.686Z,10.55
2023-01-26T09:37:56.175Z,11.38
2023-01-26T09:41:08.324Z,10.27
2023-01-26T09:44:20.457Z,10.95
2023-01-26T09:47:36.460Z,9.32
2023-01-26T09:50:47.993Z,7.38
2023-01-26T09:53:58.514Z,8.15
2023-01-26T09:57:03.765Z,7.53
2023-01-26T10:00:11.371Z,8.27
2023-01-26T10:03:27.287Z,6.97
2023-01-26T10:06:33.653Z,7.13
2023-01-26T10:09:40.932Z,7.68
2023-01-26T10:12:44.706Z,7.97
2023-01-26T10:15:54.297Z,6.75
2023-01-26T10:19:03.969Z,6.22
2023-01-26T10:22:15.526Z,7.05
2023-01-26T10:25:29.327Z,6.45
2023-01-26T10:28:36.445Z,6.53
2023-01-26T10:31:39.978Z,7.20
2023-01-26T10:34:45.078Z,6.75
2023-01-26T10:37:49.852Z,6.57
2023-01-26T10:40:54.447Z,5.60
2023-01-26T10:44:00.694Z,5.68
2023-01-26T10:47:07.895Z,6.65
2023-01-26T10:50:24.013Z,6.10
2023-01-26T10:53:30.039Z,5.25
2023-01-26T10:56:37.274Z,5.95
2023-01-26T10:59:49.733Z,5.20
2023-01-26T11:02:56.712Z,6.00
2023-01-26T11:06:19.561Z,5.13
2023-01-26T11:09:28.050Z,4.55
2023-01-26T11:12:32.695Z,4.50
2023-01-26T11:15:40.354Z,4.85
2023-01-26T11:18:58.349Z,5.07
2023-01-26T11:22:08.109Z,4.25
2023-01-26T11:25:24.724Z,4.82
2023-01-26T11:28:48.681Z,3.88
2023-01-26T11:32:07.067Z,4.27
2023-01-26T11:35:23.711Z,4.18
2023-01-26T11:38:40.460Z,4.88
2023-01-26T11:42:07.731Z,4.05
2023-01-26T11:45:27.694Z,4.43
2023-01-26T11:48:46.218Z,3.72
2023-01-26T11:52:05.141Z,4.05
2023-01-26T11:55:24.065Z,4.30
2023-01-26T11:58:36.342Z,4.53
2023-01-26T12:01:50.561Z,3.92
2023-01-26T12:04:57.192Z,4.10
2023-01-26T12:08:07.149Z,3.92
2023-01-26T12:11:25.751Z,4.05
2023-01-26T12:14:37.951Z,4.57
2023-01-26T12:18:00.189Z,5.18
2023-01-26T12:21:19.287Z,3.00
2023-01-26T12:25:04.989Z,3.33
2023-01-26T12:28:16.605Z,4.13
2023-01-26T12:31:28.280Z,3.78
2023-01-26T12:34:35.606Z,2.90
2023-01-26T12:38:17.310Z,3.60
2023-01-26T12:41:36.317Z,3.67
2023-01-26T12:44:43.083Z,2.92
2023-01-26T12:47:53.012Z,3.90
2023-01-26T12:51:02.969Z,3.15
2023-01-26T12:54:15.540Z,2.97
2023-01-26T12:57:26.460Z,2.92
2023-01-26T13:00:34.363Z,2.30
2023-01-26T13:03:41.932Z,2.53
2023-01-26T13:06:46.581Z,2.83
2023-01-26T13:10:49.347Z,2.70
2023-01-26T13:13:57.876Z,2.20
2023-01-26T13:17:54.145Z,2.58
2023-01-26T13:20:57.538Z,2.35
2023-01-26T13:24:02.106Z,2.60
2023-01-26T13:27:32.014Z,1.88
2023-01-26T13:30:44.652Z,2.05
2023-01-26T13:33:50.530Z,2.05
2023-01-26T13:37:01.523Z,2.75
2023-01-26T13:40:17.104Z,2.13
2023-01-26T13:43:35.460Z,1.63
2023-01-26T13:46:44.923Z,1.63
2023-01-26T13:49:50.375Z,2.63
2023-01-26T13:52:56.682Z,1.88
2023-01-26T13:56:07.494Z,1.95
2023-01-26T13:59:14.413Z,2.38
2023-01-26T14:02:26.019Z,2.00
2023-01-26T14:05:31.532Z,2.58
2023-01-26T14:08:36.112Z,2.78
2023-01-26T14:11:41.085Z,3.17
2023-01-26T14:14:51.234Z,4.28
2023-01-26T14:18:00.079Z,3.80
2023-01-26T14:21:06.941Z,3.78
2023-01-26T14:24:11.363Z,3.33
2023-01-26T14:27:33.496Z,2.88
2023-01-26T14:30:37.310Z,2.40
2023-01-26T14:33:41.009Z,1.95
2023-01-26T14:36:44.394Z,1.75
2023-01-26T14:39:48.226Z,1.60
2023-01-26T14:42:55.647Z,1.13
2023-01-26T14:46:07.871Z,1.88
2023-01-26T14:49:17.396Z,1.73
2023-01-26T14:52:28.626Z,1.60
2023-01-26T14:55:35.242Z,1.70
2023-01-26T14:58:45.073Z,1.70
2023-01-26T15:01:48.904Z,1.30
2023-01-26T15:05:00.171Z,1.23
2023-01-26T15:08:06.221Z,1.40
2023-01-26T15:11:29.134Z,1.30
2023-01-26T15:14:38.061Z,1.33
2023-01-26T15:17:43.743Z,1.17
2023-01-26T15:21:00.608Z,1.30
2023-01-26T15:24:05.683Z,1.33
2023-01-26T15:27:13.097Z,1.33
2023-01-26T15:30:22.963Z,1.48
2023-01-26T15:33:47.772Z,1.65
2023-01-26T15:39:55.795Z,1.30
2023-01-26T15:43:15.773Z,1.40
2023-01-26T15:46:20.354Z,1.40
2023-01-26T15:49:23.959Z,1.60
2023-01-26T15:52:31.202Z,2.00
2023-01-26T15:55:35.052Z,1.67
2023-01-26T15:58:38.990Z,1.55
2023-01-26T16:04:47.657Z,1.70
2023-01-26T16:10:56.928Z,1.35
2023-01-26T16:14:04.111Z,1.67
2023-01-26T16:17:15.443Z,1.48
2023-01-26T16:20:19.596Z,1.60
2023-01-26T16:26:32.086Z,0.88
2023-01-26T16:29:36.452Z,0.98
2023-01-26T16:35:46.004Z,0.80
2023-01-26T16:38:49.721Z,0.68
2023-01-26T16:41:53.093Z,1.00
2023-01-26T16:44:56.581Z,0.70
2023-01-26T16:48:01.666Z,0.60
2023-01-26T16:51:17.863Z,0.68
2023-01-26T16:54:21.449Z,0.70
2023-01-26T16:57:24.830Z,0.80
2023-01-26T17:00:28.325Z,0.70
2023-01-26T17:03:33.188Z,0.60
2023-01-26T17:06:36.722Z,0.73
2023-01-26T17:09:40.124Z,0.70
2023-01-26T17:12:44.483Z,0.60
2023-01-26T17:15:48.694Z,0.70
2023-01-26T17:21:57.773Z,0.50
2023-01-26T17:25:01.380Z,0.40
2023-01-26T17:28:06.069Z,0.45
2023-01-26T17:31:10.829Z,0.35
2023-01-26T17:34:15.383Z,0.40
2023-01-26T17:37:18.731Z,0.55
2023-01-26T17:40:22.268Z,0.30
2023-01-26T17:43:25.912Z,0.63
2023-01-26T17:46:29.516Z,0.50
2023-01-26T17:49:34.140Z,0.77
2023-01-26T17:52:37.651Z,1.00
2023-01-26T17:55:41.172Z,1.35
2023-01-26T17:58:48.032Z,1.38
2023-01-26T18:01:52.152Z,1.15
2023-01-26T18:04:58.045Z,0.90
2023-01-26T18:08:02.759Z,1.20
2023-01-26T18:11:10.571Z,1.02
2023-01-26T18:15:29.959Z,0.77
2023-01-26T18:18:36.457Z,1.27
2023-01-26T18:21:40.864Z,1.00
2023-01-26T18:24:51.041Z,0.95
2023-01-26T18:27:57.262Z,0.90
2023-01-26T18:31:12.233Z,1.10
2023-01-26T18:34:19.491Z,1.10
2023-01-26T18:37:26.275Z,1.10
2023-01-26T18:40:31.754Z,1.20
2023-01-26T18:43:36.125Z,0.85
2023-01-26T18:46:41.971Z,1.05
2023-01-26T18:49:46.369Z,0.60
2023-01-26T18:52:50.883Z,1.27
2023-01-26T18:56:05.194Z,0.95
2023-01-26T19:02:17.812Z,0.82
2023-01-26T19:05:22.447Z,0.82
2023-01-26T19:08:27.859Z,0.60
2023-01-26T19:11:35.911Z,0.60
2023-01-26T19:14:40.449Z,0.70
2023-01-26T19:17:48.147Z,0.50
2023-01-26T19:20:58.431Z,0.70
2023-01-26T19:24:06.033Z,0.70
2023-01-26T19:27:12.684Z,0.63
2023-01-26T19:30:18.171Z,0.80
2023-01-26T19:33:28.631Z,0.82
2023-01-26T19:36:35.349Z,0.90
2023-01-26T19:39:39.998Z,0.70
2023-01-26T19:42:45.138Z,0.88
2023-01-26T19:45:53.794Z,0.65
2023-01-26T19:49:00.121Z,0.65
2023-01-26T19:52:05.882Z,0.57
2023-01-26T19:55:13.217Z,0.52
2023-01-26T19:58:18.039Z,0.57
2023-01-26T20:01:25.103Z,0.80
2023-01-26T20:04:30.874Z,0.68
2023-01-26T20:07:35.133Z,0.70
2023-01-26T20:10:46.884Z,0.73
2023-01-26T20:13:56.125Z,0.55
2023-01-26T20:17:01.338Z,0.60
2023-01-26T20:20:12.995Z,0.47
2023-01-26T20:23:18.969Z,0.80
2023-01-26T20:26:38.571Z,0.63
2023-01-26T20:29:44.173Z,0.50
2023-01-26T20:32:54.882Z,0.60
2023-01-26T20:36:01.749Z,0.77
2023-01-26T20:39:11.517Z,0.45
2023-01-26T20:42:20.065Z,0.50
2023-01-26T20:45:29.121Z,0.52
2023-01-26T20:48:40.561Z,0.50
2023-01-26T20:51:54.049Z,0.40
2023-01-26T20:55:00.229Z,0.52
2023-01-26T20:58:09.673Z,0.55
2023-01-26T21:01:18.871Z,0.70
2023-01-26T21:04:26.944Z,0.43
2023-01-26T21:07:40.603Z,0.50
2023-01-26T21:10:50.467Z,0.73
2023-01-26T21:14:00.686Z,0.40
2023-01-26T21:17:09.210Z,0.40
2023-01-26T21:20:17.266Z,0.30
2023-01-26T21:23:30.493Z,0.50
2023-01-26T21:26:42.147Z,0.50
2023-01-26T21:29:49.654Z,0.45
2023-01-26T21:33:08.227Z,0.77
2023-01-26T21:36:18.015Z,0.40
2023-01-26T21:39:26.714Z,0.52
2023-01-26T21:42:37.022Z,0.32
2023-01-26T21:45:57.270Z,0.50
2023-01-26T21:49:03.997Z,0.35
2023-01-26T21:52:31.248Z,0.25
2023-01-26T21:55:39.715Z,0.40
2023-01-26T21:59:02.807Z,0.20
2023-01-26T22:02:12.547Z,0.30
2023-01-26T22:05:21.767Z,0.22
2023-01-26T22:08:32.107Z,0.40
2023-01-26T22:11:41.145Z,0.17
2023-01-26T22:14:47.524Z,0.30
2023-01-26T22:17:54.402Z,0.25
2023-01-26T22:21:01.844Z,0.22
2023-01-26T22:24:11.768Z,0.20
2023-01-26T22:27:20.974Z,0.10
2023-01-26T22:30:24.920Z,0.30
2023-01-26T22:33:28.704Z,0.20
2023-01-26T22:36:34.482Z,0.10
2023-01-26T22:39:41.251Z,0.20
2023-01-26T22:42:46.704Z,0.28
2023-01-26T22:45:50.575Z,0.40
2023-01-26T22:48:55.133Z,0.25
2023-01-26T22:51:58.703Z,0.32
2023-01-26T22:55:02.247Z,0.30
2023-01-26T22:58:07.062Z,0.30
2023-01-26T23:01:12.351Z,0.20
2023-01-26T23:04:16.372Z,0.30
2023-01-26T23:07:19.754Z,0.20
2023-01-26T23:10:23.229Z,0.22
2023-01-26T23:13:29.087Z,0.20
2023-01-26T23:16:32.623Z,0.22
2023-01-26T23:19:36.063Z,0.20
2023-01-26T23:22:39.478Z,0.20
2023-01-26T23:25:53.194Z,0.13
2023-01-26T23:28:58.038Z,0.22
2023-01-26T23:32:01.691Z,0.30
2023-01-26T23:35:06.252Z,0.15
2023-01-26T23:38:10.428Z,0.20
2023-01-26T23:44:19.625Z,0.30
2023-01-26T23:47:23.136Z,0.20
2023-01-26T23:50:26.873Z,0.15
2023-01-26T23:53:32.213Z,0.20
2023-01-26T23:56:35.733Z,0.35
2023-01-26T23:59:41.041Z,0.35
